sensor_id;sensor_type;location;lat;lon;timestamp;temperature;humidity
37786;DHT22;23625;48.784;9.336;2023-02-16T00:01:42;-0.30;99.90
37786;DHT22;23625;48.784;9.336;2023-02-16T00:04:16;-0.30;99.90
37786;DHT22;23625;48.784;9.336;2023-02-16T00:06:42;-0.20;99.90
37786;DHT22;23625;48.784;9.336;2023-02-16T00:09:08;-0.10;99.90
37786;DHT22;23625;48.784;9.336;2023-02-16T00:11:34;0.10;99.90
37786;DHT22;23625;48.784;9.336;2023-02-16T00:14:20;0.30;99.90
37786;DHT22;23625;48.784;9.336;2023-02-16T00:16:51;0.40;99.90
37786;DHT22;23625;48.784;9.336;2023-02-16T00:19:21;0.50;99.90
37786;DHT22;23625;48.784;9.336;2023-02-16T00:21:48;0.60;99.90
37786;DHT22;23625;48.784;9.336;2023-02-16T00:24:14;0.50;99.90
37786;DHT22;23625;48.784;9.336;2023-02-16T00:26:40;0.40;99.90
37786;DHT22;23625;48.784;9.336;2023-02-16T00:29:18;0.30;99.90
37786;DHT22;23625;48.784;9.336;2023-02-16T00:31:44;0.20;99.90
37786;DHT22;23625;48.784;9.336;2023-02-16T00:36:50;0.10;99.90
37786;DHT22;23625;48.784;9.336;2023-02-16T00:39:15;0.10;99.90
37786;DHT22;23625;48.784;9.336;2023-02-16T00:41:41;0.00;99.90
37786;DHT22;23625;48.784;9.336;2023-02-16T00:44:29;0.00;99.90
37786;DHT22;23625;48.784;9.336;2023-02-16T00:46:56;-0.10;99.90
37786;DHT22;23625;48.784;9.336;2023-02-16T00:49:21;-0.20;99.90
37786;DHT22;23625;48.784;9.336;2023-02-16T00:51:48;-0.20;99.90
37786;DHT22;23625;48.784;9.336;2023-02-16T00:54:14;-0.20;99.90
37786;DHT22;23625;48.784;9.336;2023-02-16T00:56:40;-0.30;99.90
37786;DHT22;23625;48.784;9.336;2023-02-16T00:59:17;-0.30;99.90
37786;DHT22;23625;48.784;9.336;2023-02-16T01:01:43;-0.40;99.90
37786;DHT22;23625;48.784;9.336;2023-02-16T01:04:13;-0.40;99.90
37786;DHT22;23625;48.784;9.336;2023-02-16T01:06:41;-0.40;99.90
37786;DHT22;23625;48.784;9.336;2023-02-16T01:09:26;-0.50;99.90
37786;DHT22;23625;48.784;9.336;2023-02-16T01:12:14;-0.50;99.90
37786;DHT22;23625;48.784;9.336;2023-02-16T01:14:41;-0.40;99.90
37786;DHT22;23625;48.784;9.336;2023-02-16T01:17:09;-0.40;99.90
37786;DHT22;23625;48.784;9.336;2023-02-16T01:19:35;-0.60;99.90
37786;DHT22;23625;48.784;9.336;2023-02-16T01:22:00;-0.60;99.90
37786;DHT22;23625;48.784;9.336;2023-02-16T01:24:26;-0.60;99.90
37786;DHT22;23625;48.784;9.336;2023-02-16T01:26:51;-0.60;99.90
37786;DHT22;23625;48.784;9.336;2023-02-16T01:29:19;-0.60;99.90
37786;DHT22;23625;48.784;9.336;2023-02-16T01:31:45;-0.50;99.90
37786;DHT22;23625;48.784;9.336;2023-02-16T01:34:11;-0.40;99.90
37786;DHT22;23625;48.784;9.336;2023-02-16T01:36:38;-0.40;99.90
37786;DHT22;23625;48.784;9.336;2023-02-16T01:39:05;-0.40;99.90
37786;DHT22;23625;48.784;9.336;2023-02-16T01:41:42;-0.40;99.90
37786;DHT22;23625;48.784;9.336;2023-02-16T01:44:24;-0.50;99.90
37786;DHT22;23625;48.784;9.336;2023-02-16T01:47:02;-0.50;99.90
37786;DHT22;23625;48.784;9.336;2023-02-16T01:49:30;-0.70;99.90
37786;DHT22;23625;48.784;9.336;2023-02-16T01:54:56;-0.70;99.90
37786;DHT22;23625;48.784;9.336;2023-02-16T01:57:44;-0.80;99.90
37786;DHT22;23625;48.784;9.336;2023-02-16T02:00:21;-0.80;99.90
37786;DHT22;23625;48.784;9.336;2023-02-16T02:02:51;-0.70;99.90
37786;DHT22;23625;48.784;9.336;2023-02-16T02:05:24;-0.70;99.90
37786;DHT22;23625;48.784;9.336;2023-02-16T02:08:20;-0.80;99.90
37786;DHT22;23625;48.784;9.336;2023-02-16T02:13:31;-0.80;99.90
37786;DHT22;23625;48.784;9.336;2023-02-16T02:16:00;-0.80;99.90
37786;DHT22;23625;48.784;9.336;2023-02-16T02:18:26;-0.90;99.90
37786;DHT22;23625;48.784;9.336;2023-02-16T02:21:15;-0.90;99.90
37786;DHT22;23625;48.784;9.336;2023-02-16T02:27:20;-0.90;99.90
37786;DHT22;23625;48.784;9.336;2023-02-16T02:35:43;-0.60;99.90
37786;DHT22;23625;48.784;9.336;2023-02-16T02:43:37;-1.00;99.90
37786;DHT22;23625;48.784;9.336;2023-02-16T02:46:20;-1.00;99.90
37786;DHT22;23625;48.784;9.336;2023-02-16T02:48:49;-1.00;99.90
37786;DHT22;23625;48.784;9.336;2023-02-16T02:51:15;-1.00;99.90
37786;DHT22;23625;48.784;9.336;2023-02-16T03:02:57;-1.10;99.90
37786;DHT22;23625;48.784;9.336;2023-02-16T03:05:24;-0.90;99.90
37786;DHT22;23625;48.784;9.336;2023-02-16T03:07:54;-1.00;99.90
37786;DHT22;23625;48.784;9.336;2023-02-16T03:10:26;-1.20;99.90
37786;DHT22;23625;48.784;9.336;2023-02-16T03:13:25;-1.20;99.90
37786;DHT22;23625;48.784;9.336;2023-02-16T03:15:55;-1.10;99.90
37786;DHT22;23625;48.784;9.336;2023-02-16T03:18:23;-0.90;99.90
37786;DHT22;23625;48.784;9.336;2023-02-16T03:21:09;-0.80;99.90
37786;DHT22;23625;48.784;9.336;2023-02-16T03:23:55;-0.80;99.90
37786;DHT22;23625;48.784;9.336;2023-02-16T03:26:40;-0.90;99.90
37786;DHT22;23625;48.784;9.336;2023-02-16T03:29:25;-1.00;99.90
37786;DHT22;23625;48.784;9.336;2023-02-16T03:31:53;-1.00;99.90
37786;DHT22;23625;48.784;9.336;2023-02-16T03:34:20;-0.90;99.90
37786;DHT22;23625;48.784;9.336;2023-02-16T03:36:51;-1.00;99.90
37786;DHT22;23625;48.784;9.336;2023-02-16T03:39:19;-1.00;99.90
37786;DHT22;23625;48.784;9.336;2023-02-16T03:41:48;-1.10;99.90
37786;DHT22;23625;48.784;9.336;2023-02-16T03:44:14;-1.20;99.90
37786;DHT22;23625;48.784;9.336;2023-02-16T03:46:40;-1.10;99.90
37786;DHT22;23625;48.784;9.336;2023-02-16T03:49:06;-1.20;99.90
37786;DHT22;23625;48.784;9.336;2023-02-16T03:51:31;-1.10;99.90
37786;DHT22;23625;48.784;9.336;2023-02-16T03:53:57;-1.10;99.90
37786;DHT22;23625;48.784;9.336;2023-02-16T03:56:23;-1.00;99.90
37786;DHT22;23625;48.784;9.336;2023-02-16T03:58:48;-1.20;99.90
37786;DHT22;23625;48.784;9.336;2023-02-16T04:01:14;-1.20;99.90
37786;DHT22;23625;48.784;9.336;2023-02-16T04:03:40;-1.30;99.90
37786;DHT22;23625;48.784;9.336;2023-02-16T04:06:05;-1.30;99.90
37786;DHT22;23625;48.784;9.336;2023-02-16T04:08:31;-1.30;99.90
37786;DHT22;23625;48.784;9.336;2023-02-16T04:10:57;-1.30;99.90
37786;DHT22;23625;48.784;9.336;2023-02-16T04:13:23;-1.20;99.90
37786;DHT22;23625;48.784;9.336;2023-02-16T04:15:49;-1.30;99.90
37786;DHT22;23625;48.784;9.336;2023-02-16T04:18:15;-1.40;99.90
37786;DHT22;23625;48.784;9.336;2023-02-16T04:20:40;-1.40;99.90
37786;DHT22;23625;48.784;9.336;2023-02-16T04:23:06;-1.40;99.90
37786;DHT22;23625;48.784;9.336;2023-02-16T04:25:32;-1.40;99.90
37786;DHT22;23625;48.784;9.336;2023-02-16T04:27:58;-1.40;99.90
37786;DHT22;23625;48.784;9.336;2023-02-16T04:30:29;-1.40;99.90
37786;DHT22;23625;48.784;9.336;2023-02-16T04:32:55;-1.40;99.90
37786;DHT22;23625;48.784;9.336;2023-02-16T04:35:21;-1.40;99.90
37786;DHT22;23625;48.784;9.336;2023-02-16T04:37:47;-1.40;99.90
37786;DHT22;23625;48.784;9.336;2023-02-16T04:40:15;-1.30;99.90
37786;DHT22;23625;48.784;9.336;2023-02-16T04:42:41;-1.40;99.90
37786;DHT22;23625;48.784;9.336;2023-02-16T04:45:08;-1.50;99.90
37786;DHT22;23625;48.784;9.336;2023-02-16T04:47:34;-1.50;99.90
37786;DHT22;23625;48.784;9.336;2023-02-16T04:50:00;-1.50;99.90
37786;DHT22;23625;48.784;9.336;2023-02-16T04:52:25;-1.50;99.90
37786;DHT22;23625;48.784;9.336;2023-02-16T04:54:51;-1.50;99.90
37786;DHT22;23625;48.784;9.336;2023-02-16T04:57:16;-1.60;99.90
37786;DHT22;23625;48.784;9.336;2023-02-16T04:59:43;-1.60;99.90
37786;DHT22;23625;48.784;9.336;2023-02-16T05:02:09;-1.50;99.90
37786;DHT22;23625;48.784;9.336;2023-02-16T05:04:35;-1.60;99.90
37786;DHT22;23625;48.784;9.336;2023-02-16T05:07:00;-1.60;99.90
37786;DHT22;23625;48.784;9.336;2023-02-16T05:09:26;-1.70;99.90
37786;DHT22;23625;48.784;9.336;2023-02-16T05:11:51;-1.70;99.90
37786;DHT22;23625;48.784;9.336;2023-02-16T05:14:36;-1.80;99.90
37786;DHT22;23625;48.784;9.336;2023-02-16T05:19:35;-1.80;99.90
37786;DHT22;23625;48.784;9.336;2023-02-16T05:22:01;-1.80;99.90
37786;DHT22;23625;48.784;9.336;2023-02-16T05:24:27;-1.80;99.90
37786;DHT22;23625;48.784;9.336;2023-02-16T05:26:52;-1.80;99.90
37786;DHT22;23625;48.784;9.336;2023-02-16T05:29:18;-1.90;99.90
37786;DHT22;23625;48.784;9.336;2023-02-16T05:31:44;-1.90;99.90
37786;DHT22;23625;48.784;9.336;2023-02-16T05:34:09;-1.80;99.90
37786;DHT22;23625;48.784;9.336;2023-02-16T05:36:35;-1.90;99.90
37786;DHT22;23625;48.784;9.336;2023-02-16T05:39:00;-1.90;99.90
37786;DHT22;23625;48.784;9.336;2023-02-16T05:41:26;-2.00;99.90
37786;DHT22;23625;48.784;9.336;2023-02-16T05:43:53;-2.00;99.90
37786;DHT22;23625;48.784;9.336;2023-02-16T05:46:20;-2.00;99.90
37786;DHT22;23625;48.784;9.336;2023-02-16T05:48:46;-2.00;99.90
37786;DHT22;23625;48.784;9.336;2023-02-16T05:51:12;-1.90;99.90
37786;DHT22;23625;48.784;9.336;2023-02-16T05:53:38;-1.90;99.90
37786;DHT22;23625;48.784;9.336;2023-02-16T05:56:04;-1.90;99.90
37786;DHT22;23625;48.784;9.336;2023-02-16T05:58:29;-1.90;99.90
37786;DHT22;23625;48.784;9.336;2023-02-16T06:00:55;-2.00;99.90
37786;DHT22;23625;48.784;9.336;2023-02-16T06:03:20;-2.00;99.90
37786;DHT22;23625;48.784;9.336;2023-02-16T06:05:52;-2.00;99.90
37786;DHT22;23625;48.784;9.336;2023-02-16T06:08:18;-2.00;99.90
37786;DHT22;23625;48.784;9.336;2023-02-16T06:10:43;-2.10;99.90
37786;DHT22;23625;48.784;9.336;2023-02-16T06:13:09;-2.10;99.90
37786;DHT22;23625;48.784;9.336;2023-02-16T06:15:34;-2.10;99.90
37786;DHT22;23625;48.784;9.336;2023-02-16T06:18:00;-2.00;99.90
37786;DHT22;23625;48.784;9.336;2023-02-16T06:20:27;-1.90;99.90
37786;DHT22;23625;48.784;9.336;2023-02-16T06:22:53;-1.90;99.90
37786;DHT22;23625;48.784;9.336;2023-02-16T06:25:18;-2.00;99.90
37786;DHT22;23625;48.784;9.336;2023-02-16T06:27:45;-2.00;99.90
37786;DHT22;23625;48.784;9.336;2023-02-16T06:30:10;-2.00;99.90
37786;DHT22;23625;48.784;9.336;2023-02-16T06:32:37;-2.10;99.90
37786;DHT22;23625;48.784;9.336;2023-02-16T06:35:02;-2.00;99.90
37786;DHT22;23625;48.784;9.336;2023-02-16T06:37:28;-1.90;99.90
37786;DHT22;23625;48.784;9.336;2023-02-16T06:39:54;-1.90;99.90
37786;DHT22;23625;48.784;9.336;2023-02-16T06:42:20;-1.90;99.90
37786;DHT22;23625;48.784;9.336;2023-02-16T06:44:45;-2.00;99.90
37786;DHT22;23625;48.784;9.336;2023-02-16T06:47:11;-2.10;99.90
37786;DHT22;23625;48.784;9.336;2023-02-16T06:49:36;-2.10;99.90
37786;DHT22;23625;48.784;9.336;2023-02-16T06:52:02;-2.00;99.90
37786;DHT22;23625;48.784;9.336;2023-02-16T06:54:28;-1.70;99.90
37786;DHT22;23625;48.784;9.336;2023-02-16T06:56:53;-1.50;99.90
37786;DHT22;23625;48.784;9.336;2023-02-16T06:59:19;-1.40;99.90
37786;DHT22;23625;48.784;9.336;2023-02-16T07:01:44;-1.50;99.90
37786;DHT22;23625;48.784;9.336;2023-02-16T07:04:10;-1.50;99.90
37786;DHT22;23625;48.784;9.336;2023-02-16T07:06:36;-1.50;99.90
37786;DHT22;23625;48.784;9.336;2023-02-16T07:09:02;-1.50;99.90
37786;DHT22;23625;48.784;9.336;2023-02-16T07:11:28;-1.60;99.90
37786;DHT22;23625;48.784;9.336;2023-02-16T07:13:54;-1.50;99.90
37786;DHT22;23625;48.784;9.336;2023-02-16T07:16:20;-1.50;99.90
37786;DHT22;23625;48.784;9.336;2023-02-16T07:18:46;-1.50;99.90
37786;DHT22;23625;48.784;9.336;2023-02-16T07:21:12;-1.50;99.90
37786;DHT22;23625;48.784;9.336;2023-02-16T07:23:37;-1.50;99.90
37786;DHT22;23625;48.784;9.336;2023-02-16T07:26:04;-1.50;99.90
37786;DHT22;23625;48.784;9.336;2023-02-16T07:28:29;-1.50;99.90
37786;DHT22;23625;48.784;9.336;2023-02-16T07:30:55;-1.50;99.90
37786;DHT22;23625;48.784;9.336;2023-02-16T07:33:20;-1.50;99.90
37786;DHT22;23625;48.784;9.336;2023-02-16T07:35:46;-1.50;99.90
37786;DHT22;23625;48.784;9.336;2023-02-16T07:38:12;-1.40;99.90
37786;DHT22;23625;48.784;9.336;2023-02-16T07:40:38;-1.40;99.90
37786;DHT22;23625;48.784;9.336;2023-02-16T07:43:04;-1.30;99.90
37786;DHT22;23625;48.784;9.336;2023-02-16T07:45:31;-1.30;99.90
37786;DHT22;23625;48.784;9.336;2023-02-16T07:47:57;-1.20;99.90
37786;DHT22;23625;48.784;9.336;2023-02-16T07:50:23;-1.20;99.90
37786;DHT22;23625;48.784;9.336;2023-02-16T07:52:49;-1.10;99.90
37786;DHT22;23625;48.784;9.336;2023-02-16T07:55:15;-1.10;99.90
37786;DHT22;23625;48.784;9.336;2023-02-16T07:57:40;-1.10;99.90
37786;DHT22;23625;48.784;9.336;2023-02-16T08:00:07;-1.00;99.90
37786;DHT22;23625;48.784;9.336;2023-02-16T08:02:33;-0.90;99.90
37786;DHT22;23625;48.784;9.336;2023-02-16T08:04:59;-0.70;99.90
37786;DHT22;23625;48.784;9.336;2023-02-16T08:07:25;-0.40;99.90
37786;DHT22;23625;48.784;9.336;2023-02-16T08:09:51;-0.20;99.90
37786;DHT22;23625;48.784;9.336;2023-02-16T08:12:16;0.10;99.90
37786;DHT22;23625;48.784;9.336;2023-02-16T08:14:43;0.30;99.90
37786;DHT22;23625;48.784;9.336;2023-02-16T08:17:09;0.50;99.90
37786;DHT22;23625;48.784;9.336;2023-02-16T08:19:35;0.70;99.90
37786;DHT22;23625;48.784;9.336;2023-02-16T08:22:05;0.90;99.90
37786;DHT22;23625;48.784;9.336;2023-02-16T08:24:31;1.20;99.90
37786;DHT22;23625;48.784;9.336;2023-02-16T08:27:01;1.50;99.90
37786;DHT22;23625;48.784;9.336;2023-02-16T08:29:28;1.80;99.90
37786;DHT22;23625;48.784;9.336;2023-02-16T08:31:53;2.30;99.90
37786;DHT22;23625;48.784;9.336;2023-02-16T08:34:21;3.00;99.90
37786;DHT22;23625;48.784;9.336;2023-02-16T08:36:51;3.80;99.90
37786;DHT22;23625;48.784;9.336;2023-02-16T08:39:19;4.50;99.90
37786;DHT22;23625;48.784;9.336;2023-02-16T08:41:47;5.20;99.90
37786;DHT22;23625;48.784;9.336;2023-02-16T08:44:14;5.60;99.90
37786;DHT22;23625;48.784;9.336;2023-02-16T08:46:41;6.00;99.90
37786;DHT22;23625;48.784;9.336;2023-02-16T08:49:08;6.30;99.90
37786;DHT22;23625;48.784;9.336;2023-02-16T08:51:39;6.70;99.90
37786;DHT22;23625;48.784;9.336;2023-02-16T08:54:05;6.90;99.90
37786;DHT22;23625;48.784;9.336;2023-02-16T08:56:35;7.20;99.50
37786;DHT22;23625;48.784;9.336;2023-02-16T08:59:00;7.40;98.90
37786;DHT22;23625;48.784;9.336;2023-02-16T09:01:26;7.60;95.60
37786;DHT22;23625;48.784;9.336;2023-02-16T09:03:52;7.70;97.50
37786;DHT22;23625;48.784;9.336;2023-02-16T09:06:19;7.90;96.70
37786;DHT22;23625;48.784;9.336;2023-02-16T09:08:53;8.10;96.30
37786;DHT22;23625;48.784;9.336;2023-02-16T09:11:19;8.20;93.40
37786;DHT22;23625;48.784;9.336;2023-02-16T09:13:45;8.30;90.50
37786;DHT22;23625;48.784;9.336;2023-02-16T09:16:14;8.40;90.50
37786;DHT22;23625;48.784;9.336;2023-02-16T09:18:41;8.50;90.40
37786;DHT22;23625;48.784;9.336;2023-02-16T09:21:10;8.60;91.70
37786;DHT22;23625;48.784;9.336;2023-02-16T09:23:36;8.70;88.70
37786;DHT22;23625;48.784;9.336;2023-02-16T09:26:03;8.90;86.60
37786;DHT22;23625;48.784;9.336;2023-02-16T09:28:32;9.00;85.50
37786;DHT22;23625;48.784;9.336;2023-02-16T09:30:58;9.10;85.20
37786;DHT22;23625;48.784;9.336;2023-02-16T09:33:24;9.20;84.10
37786;DHT22;23625;48.784;9.336;2023-02-16T09:35:50;9.30;81.20
37786;DHT22;23625;48.784;9.336;2023-02-16T09:38:16;9.30;81.70
37786;DHT22;23625;48.784;9.336;2023-02-16T09:40:43;9.60;83.20
37786;DHT22;23625;48.784;9.336;2023-02-16T09:43:28;9.70;80.60
37786;DHT22;23625;48.784;9.336;2023-02-16T09:45:57;9.80;76.60
37786;DHT22;23625;48.784;9.336;2023-02-16T09:48:35;9.90;74.60
37786;DHT22;23625;48.784;9.336;2023-02-16T09:51:04;9.90;74.50
37786;DHT22;23625;48.784;9.336;2023-02-16T09:53:38;10.10;74.10
37786;DHT22;23625;48.784;9.336;2023-02-16T09:56:14;10.20;73.60
37786;DHT22;23625;48.784;9.336;2023-02-16T10:03:53;10.40;71.10
37786;DHT22;23625;48.784;9.336;2023-02-16T10:06:49;10.70;70.00
37786;DHT22;23625;48.784;9.336;2023-02-16T10:09:17;11.00;68.70
37786;DHT22;23625;48.784;9.336;2023-02-16T10:11:50;11.10;66.10
37786;DHT22;23625;48.784;9.336;2023-02-16T10:17:07;11.40;65.60
37786;DHT22;23625;48.784;9.336;2023-02-16T10:22:14;11.80;64.20
37786;DHT22;23625;48.784;9.336;2023-02-16T10:24:53;11.90;62.90
37786;DHT22;23625;48.784;9.336;2023-02-16T10:27:22;12.00;62.40
37786;DHT22;23625;48.784;9.336;2023-02-16T10:29:48;12.10;61.50
37786;DHT22;23625;48.784;9.336;2023-02-16T10:32:33;12.30;62.20
37786;DHT22;23625;48.784;9.336;2023-02-16T10:35:14;12.40;60.80
37786;DHT22;23625;48.784;9.336;2023-02-16T10:40:21;12.80;59.50
37786;DHT22;23625;48.784;9.336;2023-02-16T10:43:20;13.00;58.90
37786;DHT22;23625;48.784;9.336;2023-02-16T10:45:48;13.20;58.20
37786;DHT22;23625;48.784;9.336;2023-02-16T10:48:15;13.30;57.40
37786;DHT22;23625;48.784;9.336;2023-02-16T10:51:07;13.40;57.40
37786;DHT22;23625;48.784;9.336;2023-02-16T10:53:45;13.30;56.20
37786;DHT22;23625;48.784;9.336;2023-02-16T10:56:50;13.60;56.40
37786;DHT22;23625;48.784;9.336;2023-02-16T10:59:22;13.80;56.40
37786;DHT22;23625;48.784;9.336;2023-02-16T11:01:53;13.90;55.50
37786;DHT22;23625;48.784;9.336;2023-02-16T11:04:39;14.00;54.90
37786;DHT22;23625;48.784;9.336;2023-02-16T11:07:12;14.00;54.60
37786;DHT22;23625;48.784;9.336;2023-02-16T11:09:39;14.30;54.10
37786;DHT22;23625;48.784;9.336;2023-02-16T11:12:31;14.50;55.10
37786;DHT22;23625;48.784;9.336;2023-02-16T11:17:31;14.90;53.60
37786;DHT22;23625;48.784;9.336;2023-02-16T11:20:00;15.00;52.90
37786;DHT22;23625;48.784;9.336;2023-02-16T11:22:35;15.10;53.50
37786;DHT22;23625;48.784;9.336;2023-02-16T11:28:08;15.40;52.30
37786;DHT22;23625;48.784;9.336;2023-02-16T11:30:38;15.60;52.00
37786;DHT22;23625;48.784;9.336;2023-02-16T11:33:21;15.80;51.30
37786;DHT22;23625;48.784;9.336;2023-02-16T11:35:48;16.10;51.80
37786;DHT22;23625;48.784;9.336;2023-02-16T11:38:31;16.20;51.20
37786;DHT22;23625;48.784;9.336;2023-02-16T11:40:58;16.30;50.60
37786;DHT22;23625;48.784;9.336;2023-02-16T11:43:27;16.10;48.90
37786;DHT22;23625;48.784;9.336;2023-02-16T11:46:15;16.10;49.70
37786;DHT22;23625;48.784;9.336;2023-02-16T11:48:42;15.90;49.30
37786;DHT22;23625;48.784;9.336;2023-02-16T11:51:11;15.80;49.80
37786;DHT22;23625;48.784;9.336;2023-02-16T11:53:40;15.90;50.40
37786;DHT22;23625;48.784;9.336;2023-02-16T11:56:28;16.10;50.80
37786;DHT22;23625;48.784;9.336;2023-02-16T11:59:04;16.30;49.60
37786;DHT22;23625;48.784;9.336;2023-02-16T12:07:52;16.20;50.30
37786;DHT22;23625;48.784;9.336;2023-02-16T12:10:50;16.40;50.20
37786;DHT22;23625;48.784;9.336;2023-02-16T12:13:16;16.40;48.60
37786;DHT22;23625;48.784;9.336;2023-02-16T12:15:57;16.30;49.00
37786;DHT22;23625;48.784;9.336;2023-02-16T12:24:17;16.80;48.80
37786;DHT22;23625;48.784;9.336;2023-02-16T12:27:00;16.90;47.90
37786;DHT22;23625;48.784;9.336;2023-02-16T12:35:25;17.00;48.00
37786;DHT22;23625;48.784;9.336;2023-02-16T12:43:46;17.30;47.50
37786;DHT22;23625;48.784;9.336;2023-02-16T12:46:42;17.10;47.40
37786;DHT22;23625;48.784;9.336;2023-02-16T12:49:18;16.80;47.00
37786;DHT22;23625;48.784;9.336;2023-02-16T12:51:52;16.30;47.40
37786;DHT22;23625;48.784;9.336;2023-02-16T12:54:25;16.30;48.10
37786;DHT22;23625;48.784;9.336;2023-02-16T12:57:12;16.30;48.50
37786;DHT22;23625;48.784;9.336;2023-02-16T12:59:49;16.20;47.90
37786;DHT22;23625;48.784;9.336;2023-02-16T13:02:30;16.00;48.80
37786;DHT22;23625;48.784;9.336;2023-02-16T13:05:19;16.10;48.90
37786;DHT22;23625;48.784;9.336;2023-02-16T13:07:49;16.20;49.10
37786;DHT22;23625;48.784;9.336;2023-02-16T13:10:32;16.10;49.70
37786;DHT22;23625;48.784;9.336;2023-02-16T13:13:03;16.10;50.50
37786;DHT22;23625;48.784;9.336;2023-02-16T13:15:35;16.20;50.90
37786;DHT22;23625;48.784;9.336;2023-02-16T13:20:43;16.60;50.50
37786;DHT22;23625;48.784;9.336;2023-02-16T13:34:43;17.20;48.20
37786;DHT22;23625;48.784;9.336;2023-02-16T13:45:53;16.40;49.30
37786;DHT22;23625;48.784;9.336;2023-02-16T13:48:48;16.20;49.80
37786;DHT22;23625;48.784;9.336;2023-02-16T13:51:23;16.20;50.20
37786;DHT22;23625;48.784;9.336;2023-02-16T13:54:01;16.10;50.50
37786;DHT22;23625;48.784;9.336;2023-02-16T13:56:31;15.90;50.50
37786;DHT22;23625;48.784;9.336;2023-02-16T14:01:46;15.60;50.50
37786;DHT22;23625;48.784;9.336;2023-02-16T14:19:54;15.40;52.80
37786;DHT22;23625;48.784;9.336;2023-02-16T14:22:53;15.30;53.20
37786;DHT22;23625;48.784;9.336;2023-02-16T14:38:51;15.10;54.40
37786;DHT22;23625;48.784;9.336;2023-02-16T14:41:25;15.30;54.20
37786;DHT22;23625;48.784;9.336;2023-02-16T14:51:53;15.00;55.10
37786;DHT22;23625;48.784;9.336;2023-02-16T14:56:58;14.80;55.70
37786;DHT22;23625;48.784;9.336;2023-02-16T14:59:47;14.70;56.40
37786;DHT22;23625;48.784;9.336;2023-02-16T15:02:32;14.60;56.60
37786;DHT22;23625;48.784;9.336;2023-02-16T15:05:14;14.60;57.20
37786;DHT22;23625;48.784;9.336;2023-02-16T15:07:42;14.50;57.60
37786;DHT22;23625;48.784;9.336;2023-02-16T15:10:11;14.50;57.70
37786;DHT22;23625;48.784;9.336;2023-02-16T15:12:39;14.50;57.60
37786;DHT22;23625;48.784;9.336;2023-02-16T15:15:07;14.40;57.80
37786;DHT22;23625;48.784;9.336;2023-02-16T15:17:53;14.40;57.90
37786;DHT22;23625;48.784;9.336;2023-02-16T15:20:35;14.40;58.30
37786;DHT22;23625;48.784;9.336;2023-02-16T15:23:05;14.30;58.60
37786;DHT22;23625;48.784;9.336;2023-02-16T15:25:34;14.30;58.80
37786;DHT22;23625;48.784;9.336;2023-02-16T15:28:02;14.20;58.80
37786;DHT22;23625;48.784;9.336;2023-02-16T15:30:40;14.20;59.10
37786;DHT22;23625;48.784;9.336;2023-02-16T15:33:35;14.20;60.40
37786;DHT22;23625;48.784;9.336;2023-02-16T15:36:12;14.10;62.60
37786;DHT22;23625;48.784;9.336;2023-02-16T15:38:57;14.00;62.30
37786;DHT22;23625;48.784;9.336;2023-02-16T15:41:38;14.00;61.90
37786;DHT22;23625;48.784;9.336;2023-02-16T15:44:06;14.00;61.80
37786;DHT22;23625;48.784;9.336;2023-02-16T15:46:40;14.00;62.20
37786;DHT22;23625;48.784;9.336;2023-02-16T15:49:12;13.90;62.10
37786;DHT22;23625;48.784;9.336;2023-02-16T15:51:39;13.90;62.10
37786;DHT22;23625;48.784;9.336;2023-02-16T15:54:28;13.80;62.50
37786;DHT22;23625;48.784;9.336;2023-02-16T15:56:57;13.70;63.30
37786;DHT22;23625;48.784;9.336;2023-02-16T15:59:36;13.60;65.20
37786;DHT22;23625;48.784;9.336;2023-02-16T16:04:29;13.40;67.70
37786;DHT22;23625;48.784;9.336;2023-02-16T16:06:56;13.30;69.30
37786;DHT22;23625;48.784;9.336;2023-02-16T16:09:31;13.20;71.10
37786;DHT22;23625;48.784;9.336;2023-02-16T16:12:02;13.10;72.70
37786;DHT22;23625;48.784;9.336;2023-02-16T16:14:28;12.90;74.90
37786;DHT22;23625;48.784;9.336;2023-02-16T16:16:55;12.80;79.80
37786;DHT22;23625;48.784;9.336;2023-02-16T16:19:33;12.70;81.00
37786;DHT22;23625;48.784;9.336;2023-02-16T16:21:59;12.50;82.90
37786;DHT22;23625;48.784;9.336;2023-02-16T16:24:33;12.40;87.70
37786;DHT22;23625;48.784;9.336;2023-02-16T16:27:08;12.30;90.30
37786;DHT22;23625;48.784;9.336;2023-02-16T16:29:45;12.10;90.30
37786;DHT22;23625;48.784;9.336;2023-02-16T16:34:45;12.20;81.90
37786;DHT22;23625;48.784;9.336;2023-02-16T16:40:00;11.90;86.90
37786;DHT22;23625;48.784;9.336;2023-02-16T16:42:27;11.70;91.50
37786;DHT22;23625;48.784;9.336;2023-02-16T16:50:02;11.60;85.10
37786;DHT22;23625;48.784;9.336;2023-02-16T16:52:45;11.60;85.40
37786;DHT22;23625;48.784;9.336;2023-02-16T16:55:21;11.50;88.10
37786;DHT22;23625;48.784;9.336;2023-02-16T16:57:49;11.50;87.90
37786;DHT22;23625;48.784;9.336;2023-02-16T17:00:15;11.40;89.20
37786;DHT22;23625;48.784;9.336;2023-02-16T17:02:41;11.30;90.10
37786;DHT22;23625;48.784;9.336;2023-02-16T17:05:07;11.30;90.20
37786;DHT22;23625;48.784;9.336;2023-02-16T17:07:33;11.20;90.20
37786;DHT22;23625;48.784;9.336;2023-02-16T17:09:59;11.20;89.40
37786;DHT22;23625;48.784;9.336;2023-02-16T17:12:26;11.20;90.00
37786;DHT22;23625;48.784;9.336;2023-02-16T17:14:52;11.10;90.60
37786;DHT22;23625;48.784;9.336;2023-02-16T17:17:18;11.10;91.10
37786;DHT22;23625;48.784;9.336;2023-02-16T17:19:44;11.00;91.20
37786;DHT22;23625;48.784;9.336;2023-02-16T17:22:14;11.00;91.20
37786;DHT22;23625;48.784;9.336;2023-02-16T17:24:40;10.90;92.00
37786;DHT22;23625;48.784;9.336;2023-02-16T17:27:06;10.80;92.00
37786;DHT22;23625;48.784;9.336;2023-02-16T17:29:32;10.80;91.50
37786;DHT22;23625;48.784;9.336;2023-02-16T17:31:58;10.70;90.70
37786;DHT22;23625;48.784;9.336;2023-02-16T17:34:23;10.70;90.40
37786;DHT22;23625;48.784;9.336;2023-02-16T17:36:57;10.70;90.50
37786;DHT22;23625;48.784;9.336;2023-02-16T17:39:23;10.60;87.90
37786;DHT22;23625;48.784;9.336;2023-02-16T17:41:49;10.70;87.10
37786;DHT22;23625;48.784;9.336;2023-02-16T17:44:15;10.70;86.40
37786;DHT22;23625;48.784;9.336;2023-02-16T17:46:41;10.60;86.30
37786;DHT22;23625;48.784;9.336;2023-02-16T17:49:09;10.60;86.40
37786;DHT22;23625;48.784;9.336;2023-02-16T17:51:35;10.60;88.10
37786;DHT22;23625;48.784;9.336;2023-02-16T17:54:02;10.50;87.50
37786;DHT22;23625;48.784;9.336;2023-02-16T17:56:30;10.60;86.40
37786;DHT22;23625;48.784;9.336;2023-02-16T17:58:57;10.60;84.00
37786;DHT22;23625;48.784;9.336;2023-02-16T18:01:22;10.60;85.40
37786;DHT22;23625;48.784;9.336;2023-02-16T18:03:48;10.60;84.90
37786;DHT22;23625;48.784;9.336;2023-02-16T18:06:16;10.50;85.50
37786;DHT22;23625;48.784;9.336;2023-02-16T18:08:42;10.50;84.00
37786;DHT22;23625;48.784;9.336;2023-02-16T18:11:08;10.60;84.80
37786;DHT22;23625;48.784;9.336;2023-02-16T18:13:34;10.50;84.10
37786;DHT22;23625;48.784;9.336;2023-02-16T18:16:00;10.50;87.40
37786;DHT22;23625;48.784;9.336;2023-02-16T18:18:28;10.40;89.50
37786;DHT22;23625;48.784;9.336;2023-02-16T18:20:54;10.40;90.10
37786;DHT22;23625;48.784;9.336;2023-02-16T18:23:19;10.40;88.20
37786;DHT22;23625;48.784;9.336;2023-02-16T18:25:45;10.40;88.50
37786;DHT22;23625;48.784;9.336;2023-02-16T18:28:16;10.30;90.60